sensor_id;sensor_type;location;lat;lon;timestamp;pressure;altitude;pressure_sealevel;temperature;humidity
17072;BME280;7731;50.720;6.912;2023-04-03T00:01:04;101263.31;;;4.19;91.74
17072;BME280;7731;50.720;6.912;2023-04-03T00:03:36;101264.22;;;4.06;91.87
17072;BME280;7731;50.720;6.912;2023-04-03T00:06:11;101268.53;;;3.81;95.66
17072;BME280;7731;50.720;6.912;2023-04-03T00:08:41;101270.94;;;4.15;96.34
17072;BME280;7731;50.720;6.912;2023-04-03T00:11:12;101261.78;;;3.78;94.90
17072;BME280;7731;50.720;6.912;2023-04-03T00:13:43;101257.41;;;4.16;92.59
17072;BME280;7731;50.720;6.912;2023-04-03T00:16:13;101262.41;;;4.31;91.92
17072;BME280;7731;50.720;6.912;2023-04-03T00:18:44;101266.56;;;4.46;91.44
17072;BME280;7731;50.720;6.912;2023-04-03T00:21:17;101262.50;;;4.13;90.28
17072;BME280;7731;50.720;6.912;2023-04-03T00:23:47;101265.94;;;3.96;95.17
17072;BME280;7731;50.720;6.912;2023-04-03T00:26:18;101259.97;;;4.08;96.92
17072;BME280;7731;50.720;6.912;2023-04-03T00:28:51;101267.66;;;3.94;96.34
17072;BME280;7731;50.720;6.912;2023-04-03T00:31:21;101265.06;;;4.08;93.46
17072;BME280;7731;50.720;6.912;2023-04-03T00:33:52;101265.09;;;4.00;93.50
17072;BME280;7731;50.720;6.912;2023-04-03T00:36:25;101259.09;;;4.17;94.33
17072;BME280;7731;50.720;6.912;2023-04-03T00:38:55;101250.53;;;4.33;93.55
17072;BME280;7731;50.720;6.912;2023-04-03T00:41:26;101247.13;;;4.36;95.25
17072;BME280;7731;50.720;6.912;2023-04-03T00:43:56;101250.59;;;4.22;96.33
17072;BME280;7731;50.720;6.912;2023-04-03T00:46:28;101255.75;;;4.05;97.95
17072;BME280;7731;50.720;6.912;2023-04-03T00:48:59;101257.41;;;4.13;97.88
17072;BME280;7731;50.720;6.912;2023-04-03T00:51:32;101242.22;;;3.97;98.76
17072;BME280;7731;50.720;6.912;2023-04-03T00:54:07;101254.88;;;4.09;96.85
17072;BME280;7731;50.720;6.912;2023-04-03T00:56:38;101259.84;;;4.34;93.97
17072;BME280;7731;50.720;6.912;2023-04-03T00:59:15;101259.16;;;4.04;94.31
17072;BME280;7731;50.720;6.912;2023-04-03T01:01:49;101260.13;;;3.68;98.17
17072;BME280;7731;50.720;6.912;2023-04-03T01:04:28;101250.75;;;3.78;99.60
17072;BME280;7731;50.720;6.912;2023-04-03T01:07:07;101255.81;;;3.84;98.30
17072;BME280;7731;50.720;6.912;2023-04-03T01:09:41;101253.31;;;3.76;98.47
17072;BME280;7731;50.720;6.912;2023-04-03T01:12:19;101251.50;;;4.09;99.55
17072;BME280;7731;50.720;6.912;2023-04-03T01:14:52;101249.88;;;3.94;98.22
17072;BME280;7731;50.720;6.912;2023-04-03T01:17:31;101249.84;;;4.00;99.31
17072;BME280;7731;50.720;6.912;2023-04-03T01:20:53;101248.13;;;3.99;97.77
17072;BME280;7731;50.720;6.912;2023-04-03T01:24:13;101252.47;;;3.79;100.00
17072;BME280;7731;50.720;6.912;2023-04-03T01:26:46;101247.31;;;3.94;100.00
17072;BME280;7731;50.720;6.912;2023-04-03T01:29:17;101249.03;;;3.93;100.00
17072;BME280;7731;50.720;6.912;2023-04-03T01:31:53;101245.69;;;3.78;100.00
17072;BME280;7731;50.720;6.912;2023-04-03T01:34:24;101252.38;;;4.03;98.30
17072;BME280;7731;50.720;6.912;2023-04-03T01:36:55;101249.03;;;3.95;99.05
17072;BME280;7731;50.720;6.912;2023-04-03T01:39:26;101250.72;;;3.85;98.86
17072;BME280;7731;50.720;6.912;2023-04-03T01:41:56;101247.38;;;3.79;100.00
17072;BME280;7731;50.720;6.912;2023-04-03T01:44:26;101250.69;;;3.96;98.97
17072;BME280;7731;50.720;6.912;2023-04-03T01:46:59;101251.69;;;3.60;99.94
17072;BME280;7731;50.720;6.912;2023-04-03T01:49:29;101249.94;;;3.71;100.00
17072;BME280;7731;50.720;6.912;2023-04-03T01:52:00;101244.81;;;3.86;98.82
17072;BME280;7731;50.720;6.912;2023-04-03T01:54:30;101246.56;;;3.77;100.00
17072;BME280;7731;50.720;6.912;2023-04-03T01:57:00;101241.44;;;3.80;100.00
17072;BME280;7731;50.720;6.912;2023-04-03T01:59:31;101245.69;;;3.78;98.70
17072;BME280;7731;50.720;6.912;2023-04-03T02:02:04;101257.50;;;3.88;100.00
17072;BME280;7731;50.720;6.912;2023-04-03T02:04:35;101254.25;;;3.55;100.00
17072;BME280;7731;50.720;6.912;2023-04-03T02:07:06;101252.47;;;3.75;100.00
17072;BME280;7731;50.720;6.912;2023-04-03T02:09:37;101254.28;;;3.30;100.00
17072;BME280;7731;50.720;6.912;2023-04-03T02:12:07;101250.00;;;3.52;100.00
17072;BME280;7731;50.720;6.912;2023-04-03T02:14:37;101258.50;;;3.34;100.00
17072;BME280;7731;50.720;6.912;2023-04-03T02:17:10;101254.25;;;3.43;100.00
17072;BME280;7731;50.720;6.912;2023-04-03T02:19:41;101255.94;;;3.33;100.00
17072;BME280;7731;50.720;6.912;2023-04-03T02:22:13;101260.19;;;3.46;100.00
17072;BME280;7731;50.720;6.912;2023-04-03T02:24:44;101255.97;;;3.10;100.00
17072;BME280;7731;50.720;6.912;2023-04-03T02:27:14;101264.44;;;3.43;100.00
17072;BME280;7731;50.720;6.912;2023-04-03T02:29:44;101258.44;;;3.56;100.00
17072;BME280;7731;50.720;6.912;2023-04-03T02:32:17;101261.84;;;3.63;100.00
17072;BME280;7731;50.720;6.912;2023-04-03T02:34:47;101258.41;;;3.70;100.00
17072;BME280;7731;50.720;6.912;2023-04-03T02:37:18;101265.19;;;3.71;100.00
17072;BME280;7731;50.720;6.912;2023-04-03T02:39:48;101263.50;;;3.62;100.00
17072;BME280;7731;50.720;6.912;2023-04-03T02:42:18;101264.41;;;3.46;100.00
17072;BME280;7731;50.720;6.912;2023-04-03T02:44:49;101258.50;;;3.19;100.00
17072;BME280;7731;50.720;6.912;2023-04-03T02:47:22;101260.97;;;3.59;100.00
17072;BME280;7731;50.720;6.912;2023-04-03T02:49:52;101261.00;;;3.47;100.00
17072;BME280;7731;50.720;6.912;2023-04-03T02:52:22;101265.16;;;3.82;100.00
17072;BME280;7731;50.720;6.912;2023-04-03T02:54:58;101264.41;;;3.58;100.00
17072;BME280;7731;50.720;6.912;2023-04-03T02:57:28;101268.69;;;3.05;100.00
17072;BME280;7731;50.720;6.912;2023-04-03T02:59:58;101267.84;;;2.95;100.00
17072;BME280;7731;50.720;6.912;2023-04-03T03:02:31;101262.75;;;3.23;100.00
17072;BME280;7731;50.720;6.912;2023-04-03T03:05:02;101262.75;;;3.08;100.00
17072;BME280;7731;50.720;6.912;2023-04-03T03:07:32;101267.81;;;3.29;100.00
17072;BME280;7731;50.720;6.912;2023-04-03T03:10:04;101266.09;;;3.37;100.00
17072;BME280;7731;50.720;6.912;2023-04-03T03:12:34;101263.56;;;3.42;100.00
17072;BME280;7731;50.720;6.912;2023-04-03T03:15:07;101261.06;;;3.14;100.00
17072;BME280;7731;50.720;6.912;2023-04-03T03:17:41;101261.88;;;3.10;100.00
17072;BME280;7731;50.720;6.912;2023-04-03T03:20:13;101262.75;;;3.20;100.00
17072;BME280;7731;50.720;6.912;2023-04-03T03:22:44;101259.34;;;2.65;100.00
17072;BME280;7731;50.720;6.912;2023-04-03T03:25:14;101260.22;;;2.80;100.00
17072;BME280;7731;50.720;6.912;2023-04-03T03:27:45;101265.25;;;2.55;100.00
17072;BME280;7731;50.720;6.912;2023-04-03T03:30:15;101265.28;;;2.78;100.00
17072;BME280;7731;50.720;6.912;2023-04-03T03:32:48;101267.84;;;2.92;100.00
17072;BME280;7731;50.720;6.912;2023-04-03T03:35:22;101266.09;;;2.54;100.00
17072;BME280;7731;50.720;6.912;2023-04-03T03:37:52;101269.47;;;2.56;100.00
17072;BME280;7731;50.720;6.912;2023-04-03T03:40:36;101272.88;;;2.61;100.00
17072;BME280;7731;50.720;6.912;2023-04-03T03:43:07;101263.56;;;2.62;100.00
17072;BME280;7731;50.720;6.912;2023-04-03T03:45:37;101271.94;;;2.27;100.00
17072;BME280;7731;50.720;6.912;2023-04-03T03:48:10;101264.41;;;2.72;100.00
17072;BME280;7731;50.720;6.912;2023-04-03T03:50:40;101267.75;;;2.40;100.00
17072;BME280;7731;50.720;6.912;2023-04-03T03:53:10;101266.91;;;2.48;100.00
17072;BME280;7731;50.720;6.912;2023-04-03T03:55:41;101268.56;;;2.29;100.00
17072;BME280;7731;50.720;6.912;2023-04-03T03:58:12;101263.53;;;2.37;100.00
17072;BME280;7731;50.720;6.912;2023-04-03T04:00:42;101270.31;;;2.40;100.00
17072;BME280;7731;50.720;6.912;2023-04-03T04:03:15;101263.56;;;2.60;100.00
17072;BME280;7731;50.720;6.912;2023-04-03T04:05:46;101264.44;;;2.81;100.00
17072;BME280;7731;50.720;6.912;2023-04-03T04:08:17;101267.81;;;2.61;100.00
17072;BME280;7731;50.720;6.912;2023-04-03T04:10:47;101269.50;;;2.68;100.00
17072;BME280;7731;50.720;6.912;2023-04-03T04:13:17;101269.47;;;2.50;100.00
17072;BME280;7731;50.720;6.912;2023-04-03T04:15:47;101276.25;;;2.59;100.00
17072;BME280;7731;50.720;6.912;2023-04-03T04:18:20;101274.56;;;2.67;100.00
17072;BME280;7731;50.720;6.912;2023-04-03T04:20:51;101277.94;;;2.58;100.00
17072;BME280;7731;50.720;6.912;2023-04-03T04:23:21;101275.44;;;2.66;100.00
17072;BME280;7731;50.720;6.912;2023-04-03T04:25:54;101254.22;;;2.35;100.00
17072;BME280;7731;50.720;6.912;2023-04-03T04:28:25;101274.47;;;2.28;100.00
17072;BME280;7731;50.720;6.912;2023-04-03T04:30:55;101274.53;;;2.47;100.00
17072;BME280;7731;50.720;6.912;2023-04-03T04:33:28;101269.44;;;2.44;100.00
17072;BME280;7731;50.720;6.912;2023-04-03T04:35:58;101274.44;;;2.18;100.00
17072;BME280;7731;50.720;6.912;2023-04-03T04:38:28;101273.69;;;2.42;100.00
17072;BME280;7731;50.720;6.912;2023-04-03T04:40:58;101282.94;;;2.24;100.00
17072;BME280;7731;50.720;6.912;2023-04-03T04:43:30;101285.50;;;2.35;100.00
17072;BME280;7731;50.720;6.912;2023-04-03T04:46:02;101289.66;;;2.19;100.00
17072;BME280;7731;50.720;6.912;2023-04-03T04:48:37;101294.56;;;1.82;100.00
17072;BME280;7731;50.720;6.912;2023-04-03T04:51:07;101292.91;;;1.90;100.00
17072;BME280;7731;50.720;6.912;2023-04-03T04:53:38;101296.28;;;1.86;100.00
17072;BME280;7731;50.720;6.912;2023-04-03T04:56:08;101292.88;;;1.87;100.00
17072;BME280;7731;50.720;6.912;2023-04-03T04:58:39;101299.75;;;2.10;100.00
17072;BME280;7731;50.720;6.912;2023-04-03T05:01:11;101303.19;;;2.15;100.00
17072;BME280;7731;50.720;6.912;2023-04-03T05:03:49;101290.53;;;2.20;100.00
17072;BME280;7731;50.720;6.912;2023-04-03T05:06:24;101299.72;;;2.01;100.00
17072;BME280;7731;50.720;6.912;2023-04-03T05:08:55;101308.19;;;2.09;100.00
17072;BME280;7731;50.720;6.912;2023-04-03T05:11:25;101306.47;;;1.95;100.00
17072;BME280;7731;50.720;6.912;2023-04-03T05:13:55;101309.06;;;2.12;100.00
17072;BME280;7731;50.720;6.912;2023-04-03T05:16:26;101314.13;;;2.08;100.00
17072;BME280;7731;50.720;6.912;2023-04-03T05:18:59;101314.78;;;1.76;100.00
17072;BME280;7731;50.720;6.912;2023-04-03T05:21:30;101314.84;;;1.82;100.00
17072;BME280;7731;50.720;6.912;2023-04-03T05:24:01;101314.84;;;1.84;100.00
17072;BME280;7731;50.720;6.912;2023-04-03T05:26:32;101312.34;;;1.88;100.00
17072;BME280;7731;50.720;6.912;2023-04-03T05:29:03;101326.53;;;1.58;100.00
17072;BME280;7731;50.720;6.912;2023-04-03T05:31:34;101330.09;;;1.91;100.00
17072;BME280;7731;50.720;6.912;2023-04-03T05:34:11;101319.25;;;2.20;100.00
17072;BME280;7731;50.720;6.912;2023-04-03T05:36:42;101321.78;;;2.22;100.00
17072;BME280;7731;50.720;6.912;2023-04-03T05:39:13;101320.13;;;2.30;100.00
17072;BME280;7731;50.720;6.912;2023-04-03T05:41:43;101328.53;;;2.15;100.00
17072;BME280;7731;50.720;6.912;2023-04-03T05:44:16;101336.91;;;1.99;100.00
17072;BME280;7731;50.720;6.912;2023-04-03T05:46:47;101337.78;;;2.10;100.00
17072;BME280;7731;50.720;6.912;2023-04-03T05:49:19;101339.44;;;2.02;100.00
17072;BME280;7731;50.720;6.912;2023-04-03T05:51:51;101342.09;;;2.23;100.00
17072;BME280;7731;50.720;6.912;2023-04-03T05:54:25;101343.00;;;2.42;100.00
17072;BME280;7731;50.720;6.912;2023-04-03T05:56:56;101338.75;;;2.30;100.00
17072;BME280;7731;50.720;6.912;2023-04-03T05:59:27;101349.66;;;2.17;100.00
17072;BME280;7731;50.720;6.912;2023-04-03T06:01:57;101352.22;;;2.22;100.00
17072;BME280;7731;50.720;6.912;2023-04-03T06:04:31;101354.78;;;2.29;100.00
17072;BME280;7731;50.720;6.912;2023-04-03T06:07:01;101348.88;;;2.30;100.00
17072;BME280;7731;50.720;6.912;2023-04-03T06:09:31;101358.13;;;2.25;100.00
17072;BME280;7731;50.720;6.912;2023-04-03T06:12:02;101353.13;;;2.41;100.00
17072;BME280;7731;50.720;6.912;2023-04-03T06:14:33;101355.63;;;2.35;100.00
17072;BME280;7731;50.720;6.912;2023-04-03T06:17:04;101360.78;;;2.53;100.00
17072;BME280;7731;50.720;6.912;2023-04-03T06:19:38;101359.97;;;2.60;100.00
17072;BME280;7731;50.720;6.912;2023-04-03T06:22:08;101359.19;;;2.80;100.00
17072;BME280;7731;50.720;6.912;2023-04-03T06:24:39;101363.41;;;2.79;98.42
17072;BME280;7731;50.720;6.912;2023-04-03T06:27:11;101368.47;;;2.81;98.48
17072;BME280;7731;50.720;6.912;2023-04-03T06:29:42;101375.09;;;2.34;100.00
17072;BME280;7731;50.720;6.912;2023-04-03T06:32:12;101371.84;;;2.71;100.00
17072;BME280;7731;50.720;6.912;2023-04-03T06:34:45;101367.66;;;2.91;98.22
17072;BME280;7731;50.720;6.912;2023-04-03T06:37:18;101367.66;;;2.88;97.11
17072;BME280;7731;50.720;6.912;2023-04-03T06:39:49;101371.91;;;2.94;94.34
17072;BME280;7731;50.720;6.912;2023-04-03T06:42:19;101363.44;;;2.96;93.82
17072;BME280;7731;50.720;6.912;2023-04-03T06:44:49;101372.75;;;3.00;92.59
17072;BME280;7731;50.720;6.912;2023-04-03T06:47:19;101369.41;;;3.26;90.88
17072;BME280;7731;50.720;6.912;2023-04-03T06:49:52;101371.94;;;3.31;90.00
17072;BME280;7731;50.720;6.912;2023-04-03T06:52:23;101372.78;;;3.50;87.55
17072;BME280;7731;50.720;6.912;2023-04-03T06:54:54;101373.66;;;3.58;86.80
17072;BME280;7731;50.720;6.912;2023-04-03T06:57:26;101377.88;;;3.56;86.49
17072;BME280;7731;50.720;6.912;2023-04-03T06:59:57;101360.97;;;3.49;83.53
17072;BME280;7731;50.720;6.912;2023-04-03T07:02:27;101371.13;;;3.55;86.60
17072;BME280;7731;50.720;6.912;2023-04-03T07:05:00;101375.31;;;3.74;84.37
17072;BME280;7731;50.720;6.912;2023-04-03T07:07:30;101374.47;;;3.72;82.72
17072;BME280;7731;50.720;6.912;2023-04-03T07:10:01;101372.78;;;3.74;83.84
17072;BME280;7731;50.720;6.912;2023-04-03T07:12:31;101367.59;;;4.11;81.79
17072;BME280;7731;50.720;6.912;2023-04-03T07:15:02;101373.50;;;4.32;80.10
17072;BME280;7731;50.720;6.912;2023-04-03T07:17:33;101377.72;;;4.41;79.45
17072;BME280;7731;50.720;6.912;2023-04-03T07:20:08;101376.81;;;4.45;79.28
17072;BME280;7731;50.720;6.912;2023-04-03T07:22:38;101369.69;;;5.12;73.72
17072;BME280;7731;50.720;6.912;2023-04-03T07:25:09;101371.34;;;6.15;68.05
17072;BME280;7731;50.720;6.912;2023-04-03T07:27:39;101347.59;;;9.75;53.04
17072;BME280;7731;50.720;6.912;2023-04-03T07:30:12;101344.78;;;12.28;44.03
17072;BME280;7731;50.720;6.912;2023-04-03T07:32:43;101336.31;;;14.53;37.72
17072;BME280;7731;50.720;6.912;2023-04-03T07:35:16;101337.22;;;13.75;37.40
17072;BME280;7731;50.720;6.912;2023-04-03T07:37:46;101349.28;;;11.49;42.54
17072;BME280;7731;50.720;6.912;2023-04-03T07:40:16;101350.41;;;11.40;41.99
17072;BME280;7731;50.720;6.912;2023-04-03T07:42:47;101338.28;;;15.38;35.08
17072;BME280;7731;50.720;6.912;2023-04-03T07:45:18;101339.50;;;16.63;32.13
17072;BME280;7731;50.720;6.912;2023-04-03T07:47:50;101346.25;;;18.01;30.41
17072;BME280;7731;50.720;6.912;2023-04-03T07:50:23;101341.50;;;19.04;27.78
17072;BME280;7731;50.720;6.912;2023-04-03T07:52:54;101344.56;;;18.00;29.25
17072;BME280;7731;50.720;6.912;2023-04-03T07:55:25;101361.84;;;14.41;34.80
17072;BME280;7731;50.720;6.912;2023-04-03T07:57:55;101370.16;;;13.70;35.55
17072;BME280;7731;50.720;6.912;2023-04-03T08:00:26;101360.41;;;16.12;32.47
17072;BME280;7731;50.720;6.912;2023-04-03T08:02:56;101361.59;;;16.22;30.44
17072;BME280;7731;50.720;6.912;2023-04-03T08:05:29;101358.66;;;16.76;29.94
17072;BME280;7731;50.720;6.912;2023-04-03T08:08:00;101359.78;;;16.56;30.68
17072;BME280;7731;50.720;6.912;2023-04-03T08:10:30;101365.94;;;17.02;30.46
17072;BME280;7731;50.720;6.912;2023-04-03T08:13:02;101357.47;;;17.14;30.67
17072;BME280;7731;50.720;6.912;2023-04-03T08:15:33;101351.66;;;18.67;27.58
17072;BME280;7731;50.720;6.912;2023-04-03T08:18:04;101363.88;;;18.25;29.15
17072;BME280;7731;50.720;6.912;2023-04-03T08:20:38;101360.31;;;18.68;28.45
17072;BME280;7731;50.720;6.912;2023-04-03T08:23:09;101361.16;;;18.96;27.10
17072;BME280;7731;50.720;6.912;2023-04-03T08:25:41;101363.81;;;18.12;28.96
17072;BME280;7731;50.720;6.912;2023-04-03T08:28:12;101363.22;;;19.56;26.79
17072;BME280;7731;50.720;6.912;2023-04-03T08:30:43;101368.31;;;17.51;28.80
17072;BME280;7731;50.720;6.912;2023-04-03T08:33:13;101369.63;;;17.87;28.80
17072;BME280;7731;50.720;6.912;2023-04-03T08:35:46;101371.38;;;16.81;29.10
17072;BME280;7731;50.720;6.912;2023-04-03T08:38:17;101367.97;;;16.81;29.77
17072;BME280;7731;50.720;6.912;2023-04-03T08:40:47;101366.41;;;17.98;29.09
17072;BME280;7731;50.720;6.912;2023-04-03T08:43:34;101365.28;;;19.13;26.71
17072;BME280;7731;50.720;6.912;2023-04-03T08:46:11;101365.81;;;17.19;28.75
17072;BME280;7731;50.720;6.912;2023-04-03T08:48:44;101379.94;;;13.62;31.77
17072;BME280;7731;50.720;6.912;2023-04-03T08:51:20;101391.25;;;12.73;34.04
17072;BME280;7731;50.720;6.912;2023-04-03T08:54:00;101384.16;;;14.63;33.03
17072;BME280;7731;50.720;6.912;2023-04-03T08:56:34;101376.34;;;16.70;29.02
17072;BME280;7731;50.720;6.912;2023-04-03T08:59:11;101384.88;;;16.40;28.54
17072;BME280;7731;50.720;6.912;2023-04-03T09:01:44;101389.56;;;17.58;27.70
17072;BME280;7731;50.720;6.912;2023-04-03T09:04:16;101358.94;;;19.30;24.46
17072;BME280;7731;50.720;6.912;2023-04-03T09:06:56;101377.84;;;18.79;25.29
17072;BME280;7731;50.720;6.912;2023-04-03T09:09:33;101393.25;;;17.98;26.23
17072;BME280;7731;50.720;6.912;2023-04-03T09:12:18;101393.66;;;16.85;26.62
17072;BME280;7731;50.720;6.912;2023-04-03T09:15:02;101389.88;;;16.75;27.68
17072;BME280;7731;50.720;6.912;2023-04-03T09:17:55;101384.53;;;17.55;27.35
17072;BME280;7731;50.720;6.912;2023-04-03T09:20:39;101389.22;;;16.55;29.39
17072;BME280;7731;50.720;6.912;2023-04-03T09:23:23;101370.09;;;18.23;26.13
17072;BME280;7731;50.720;6.912;2023-04-03T09:26:03;101382.47;;;17.31;28.03
17072;BME280;7731;50.720;6.912;2023-04-03T09:28:39;101380.41;;;16.10;29.08
17072;BME280;7731;50.720;6.912;2023-04-03T09:31:23;101380.09;;;16.16;29.13
17072;BME280;7731;50.720;6.912;2023-04-03T09:34:00;101398.88;;;14.42;33.06
17072;BME280;7731;50.720;6.912;2023-04-03T09:36:46;101384.34;;;17.13;28.34
17072;BME280;7731;50.720;6.912;2023-04-03T09:39:25;101387.31;;;15.59;30.09
17072;BME280;7731;50.720;6.912;2023-04-03T09:42:01;101385.19;;;15.49;29.20
17072;BME280;7731;50.720;6.912;2023-04-03T09:44:35;101378.34;;;15.13;30.27
17072;BME280;7731;50.720;6.912;2023-04-03T09:47:24;101384.19;;;15.87;28.80
17072;BME280;7731;50.720;6.912;2023-04-03T09:50:19;101377.91;;;18.08;26.45
17072;BME280;7731;50.720;6.912;2023-04-03T09:52:51;101373.44;;;15.95;28.24
17072;BME280;7731;50.720;6.912;2023-04-03T09:55:27;101403.59;;;12.17;34.22
17072;BME280;7731;50.720;6.912;2023-04-03T09:58:00;101389.88;;;16.43;28.97
17072;BME280;7731;50.720;6.912;2023-04-03T10:00:38;101382.47;;;18.05;27.22
17072;BME280;7731;50.720;6.912;2023-04-03T10:03:28;101393.16;;;14.35;31.09
17072;BME280;7731;50.720;6.912;2023-04-03T10:06:03;101390.16;;;13.45;31.66
17072;BME280;7731;50.720;6.912;2023-04-03T10:08:35;101381.00;;;15.12;30.28
17072;BME280;7731;50.720;6.912;2023-04-03T10:11:14;101369.00;;;15.97;28.60
17072;BME280;7731;50.720;6.912;2023-04-03T10:13:57;101377.00;;;16.41;27.25
17072;BME280;7731;50.720;6.912;2023-04-03T10:16:36;101382.75;;;15.46;29.14
17072;BME280;7731;50.720;6.912;2023-04-03T10:19:39;101374.41;;;15.24;28.71
17072;BME280;7731;50.720;6.912;2023-04-03T10:22:20;101369.56;;;16.67;27.05
17072;BME280;7731;50.720;6.912;2023-04-03T10:25:04;101367.78;;;16.20;27.80
17072;BME280;7731;50.720;6.912;2023-04-03T10:27:53;101379.50;;;15.78;28.66
17072;BME280;7731;50.720;6.912;2023-04-03T10:30:40;101367.38;;;15.61;28.05
17072;BME280;7731;50.720;6.912;2023-04-03T10:33:31;101366.13;;;14.98;29.77
17072;BME280;7731;50.720;6.912;2023-04-03T10:36:21;101366.09;;;16.03;27.50
17072;BME280;7731;50.720;6.912;2023-04-03T10:39:04;101356.69;;;14.79;27.82
17072;BME280;7731;50.720;6.912;2023-04-03T10:41:59;101355.00;;;14.59;29.00
17072;BME280;7731;50.720;6.912;2023-04-03T10:45:13;101369.47;;;14.25;30.07
17072;BME280;7731;50.720;6.912;2023-04-03T10:47:57;101347.78;;;16.70;26.41
17072;BME280;7731;50.720;6.912;2023-04-03T10:50:48;101353.28;;;15.49;27.63
17072;BME280;7731;50.720;6.912;2023-04-03T10:53:31;101354.41;;;15.61;28.11
17072;BME280;7731;50.720;6.912;2023-04-03T10:56:12;101352.75;;;15.42;27.99
17072;BME280;7731;50.720;6.912;2023-04-03T10:58:52;101355.81;;;14.03;29.50
17072;BME280;7731;50.720;6.912;2023-04-03T11:01:33;101360.81;;;12.82;29.07
17072;BME280;7731;50.720;6.912;2023-04-03T11:04:08;101352.34;;;14.23;28.53
17072;BME280;7731;50.720;6.912;2023-04-03T11:06:46;101346.88;;;16.07;25.88
17072;BME280;7731;50.720;6.912;2023-04-03T11:09:25;101341.41;;;14.54;27.91
17072;BME280;7731;50.720;6.912;2023-04-03T11:12:14;101341.06;;;13.24;26.90
17072;BME280;7731;50.720;6.912;2023-04-03T11:14:50;101343.03;;;14.57;27.02
17072;BME280;7731;50.720;6.912;2023-04-03T11:17:31;101342.22;;;15.80;25.55
17072;BME280;7731;50.720;6.912;2023-04-03T11:20:13;101338.06;;;14.71;24.89
17072;BME280;7731;50.720;6.912;2023-04-03T11:22:52;101333.59;;;13.59;26.66
17072;BME280;7731;50.720;6.912;2023-04-03T11:25:25;101338.00;;;12.02;28.11
17072;BME280;7731;50.720;6.912;2023-04-03T11:27:59;101343.00;;;12.30;28.00
17072;BME280;7731;50.720;6.912;2023-04-03T11:30:38;101344.75;;;11.56;28.76
17072;BME280;7731;50.720;6.912;2023-04-03T11:33:43;101345.38;;;10.56;31.60
17072;BME280;7731;50.720;6.912;2023-04-03T11:36:24;101342.72;;;10.59;32.58
17072;BME280;7731;50.720;6.912;2023-04-03T11:39:22;101341.91;;;11.89;29.73
17072;BME280;7731;50.720;6.912;2023-04-03T11:41:54;101333.41;;;12.34;30.76
17072;BME280;7731;50.720;6.912;2023-04-03T11:44:39;101325.28;;;12.45;30.43
17072;BME280;7731;50.720;6.912;2023-04-03T11:47:49;101322.31;;;12.78;29.00
17072;BME280;7731;50.720;6.912;2023-04-03T11:50:44;101323.78;;;12.15;31.09
17072;BME280;7731;50.720;6.912;2023-04-03T11:53:35;101314.13;;;12.66;29.39
17072;BME280;7731;50.720;6.912;2023-04-03T11:56:29;101314.72;;;12.29;29.08
17072;BME280;7731;50.720;6.912;2023-04-03T11:59:24;101296.53;;;13.81;26.63
17072;BME280;7731;50.720;6.912;2023-04-03T12:01:57;101300.56;;;13.67;27.46
17072;BME280;7731;50.720;6.912;2023-04-03T12:04:30;101310.97;;;12.60;27.88
17072;BME280;7731;50.720;6.912;2023-04-03T12:07:25;101312.59;;;11.68;28.30
17072;BME280;7731;50.720;6.912;2023-04-03T12:09:59;101299.22;;;10.79;31.07
17072;BME280;7731;50.720;6.912;2023-04-03T12:12:38;101304.72;;;11.47;30.49
17072;BME280;7731;50.720;6.912;2023-04-03T12:15:48;101295.97;;;11.01;31.61
17072;BME280;7731;50.720;6.912;2023-04-03T12:18:42;101294.84;;;10.54;31.11
17072;BME280;7731;50.720;6.912;2023-04-03T12:21:17;101286.78;;;10.39;30.88
17072;BME280;7731;50.720;6.912;2023-04-03T12:24:04;101294.44;;;10.40;30.86
17072;BME280;7731;50.720;6.912;2023-04-03T12:26:43;101298.81;;;10.36;31.09
17072;BME280;7731;50.720;6.912;2023-04-03T12:29:21;101280.34;;;10.53;30.37
17072;BME280;7731;50.720;6.912;2023-04-03T12:32:09;101285.13;;;10.06;29.78
17072;BME280;7731;50.720;6.912;2023-04-03T12:34:58;101276.69;;;10.61;30.73
17072;BME280;7731;50.720;6.912;2023-04-03T12:41:23;101283.41;;;10.65;30.26
17072;BME280;7731;50.720;6.912;2023-04-03T12:44:24;101273.13;;;10.65;29.51
17072;BME280;7731;50.720;6.912;2023-04-03T12:47:02;101262.44;;;10.21;32.23
17072;BME280;7731;50.720;6.912;2023-04-03T12:49:42;101277.84;;;10.50;30.82
17072;BME280;7731;50.720;6.912;2023-04-03T12:52:28;101272.66;;;11.05;29.35
17072;BME280;7731;50.720;6.912;2023-04-03T12:55:11;101277.03;;;9.59;31.01
17072;BME280;7731;50.720;6.912;2023-04-03T12:57:47;101272.84;;;9.55;31.90
17072;BME280;7731;50.720;6.912;2023-04-03T13:00:29;101270.13;;;10.50;30.97
17072;BME280;7731;50.720;6.912;2023-04-03T13:03:02;101266.97;;;10.42;30.12
17072;BME280;7731;50.720;6.912;2023-04-03T13:05:35;101269.22;;;10.53;30.98
17072;BME280;7731;50.720;6.912;2023-04-03T13:08:13;101266.03;;;10.45;29.53
17072;BME280;7731;50.720;6.912;2023-04-03T13:11:02;101256.94;;;10.63;30.38
17072;BME280;7731;50.720;6.912;2023-04-03T13:13:33;101260.44;;;10.60;30.57
17072;BME280;7731;50.720;6.912;2023-04-03T13:16:09;101257.63;;;10.68;30.53
17072;BME280;7731;50.720;6.912;2023-04-03T13:18:41;101248.84;;;10.47;29.16
17072;BME280;7731;50.720;6.912;2023-04-03T13:21:17;101254.16;;;10.12;30.15
17072;BME280;7731;50.720;6.912;2023-04-03T13:23:55;101257.03;;;9.39;31.89
17072;BME280;7731;50.720;6.912;2023-04-03T13:26:44;101260.09;;;9.20;32.76
17072;BME280;7731;50.720;6.912;2023-04-03T13:29:24;101252.91;;;9.96;31.81
17072;BME280;7731;50.720;6.912;2023-04-03T13:32:00;101241.97;;;9.89;32.49
17072;BME280;7731;50.720;6.912;2023-04-03T13:34:38;101243.03;;;9.82;32.26
17072;BME280;7731;50.720;6.912;2023-04-03T13:37:23;101250.94;;;10.04;32.56
17072;BME280;7731;50.720;6.912;2023-04-03T13:40:01;101243.06;;;10.40;30.90
17072;BME280;7731;50.720;6.912;2023-04-03T13:42:37;101229.75;;;10.26;30.89
17072;BME280;7731;50.720;6.912;2023-04-03T13:45:27;101229.94;;;9.91;31.94
17072;BME280;7731;50.720;6.912;2023-04-03T13:48:16;101234.00;;;9.37;32.07
17072;BME280;7731;50.720;6.912;2023-04-03T13:51:02;101219.75;;;10.16;30.92